createdAt,value
2022-11-20T00:00:23.874Z,22.98
2022-11-20T00:01:27.963Z,22.96
2022-11-20T00:02:32.068Z,22.95
2022-11-20T00:03:36.154Z,22.94
2022-11-20T00:04:40.234Z,22.88
2022-11-20T00:05:44.309Z,22.91
2022-11-20T00:06:48.399Z,22.89
2022-11-20T00:07:52.496Z,22.88
2022-11-20T00:08:56.577Z,22.86
2022-11-20T00:10:00.628Z,22.8
2022-11-20T00:11:04.692Z,22.79
2022-11-20T00:12:11.609Z,22.79
2022-11-20T00:13:15.755Z,22.78
2022-11-20T00:14:19.803Z,22.77
2022-11-20T00:15:23.875Z,22.8
2022-11-20T00:16:27.920Z,22.79
2022-11-20T00:17:31.996Z,22.78
2022-11-20T00:18:36.061Z,22.71
2022-11-20T00:19:40.110Z,22.74
2022-11-20T00:20:44.165Z,22.73
2022-11-20T00:21:48.212Z,22.7
2022-11-20T00:22:52.270Z,22.64
2022-11-20T00:23:56.331Z,22.67
2022-11-20T00:25:00.481Z,22.66
2022-11-20T00:26:04.584Z,22.65
2022-11-20T00:27:08.689Z,22.62
2022-11-20T00:28:12.775Z,22.56
2022-11-20T00:29:16.860Z,22.59
2022-11-20T00:30:21.349Z,22.58
2022-11-20T00:31:25.430Z,22.57
2022-11-20T00:32:29.515Z,22.5
2022-11-20T00:33:33.603Z,22.52
2022-11-20T00:34:37.682Z,22.49
2022-11-20T00:35:41.780Z,22.46
2022-11-20T00:36:45.874Z,22.45
2022-11-20T00:37:49.971Z,22.42
2022-11-20T00:38:54.066Z,22.4
2022-11-20T00:39:58.155Z,22.43
2022-11-20T00:41:02.219Z,22.42
2022-11-20T00:42:06.289Z,22.41
2022-11-20T00:43:10.380Z,22.39
2022-11-20T00:44:14.532Z,22.34
2022-11-20T00:45:18.622Z,22.33
2022-11-20T00:46:22.727Z,22.33
2022-11-20T00:47:26.831Z,22.31
2022-11-20T00:48:30.916Z,22.3
2022-11-20T00:49:34.997Z,22.3
2022-11-20T00:50:39.083Z,22.34
2022-11-20T00:51:43.138Z,22.31
2022-11-20T00:52:47.221Z,22.31
2022-11-20T00:53:51.300Z,22.33
2022-11-20T00:54:55.375Z,22.31
2022-11-20T00:55:59.471Z,22.26
2022-11-20T00:57:03.520Z,22.24
2022-11-20T00:58:11.560Z,22.23
2022-11-20T00:59:17.722Z,22.28
2022-11-20T01:00:22.493Z,22.22
2022-11-20T01:01:26.704Z,22.19
2022-11-20T01:02:31.100Z,22.18
2022-11-20T01:03:35.170Z,22.23
2022-11-20T01:04:39.256Z,22.23
2022-11-20T01:05:43.341Z,22.17
2022-11-20T01:06:47.425Z,22.21
2022-11-20T01:07:51.496Z,22.2
2022-11-20T01:08:55.837Z,22.21
2022-11-20T01:09:59.923Z,22.13
2022-11-20T01:11:03.996Z,22.14
2022-11-20T01:12:08.075Z,22.14
2022-11-20T01:13:12.141Z,22.13
2022-11-20T01:14:16.228Z,22.16
2022-11-20T01:15:20.373Z,22.16
2022-11-20T01:16:24.445Z,22.1
2022-11-20T01:17:28.535Z,22.14
2022-11-20T01:18:32.606Z,22.13
2022-11-20T01:19:36.687Z,22.12
2022-11-20T01:20:40.747Z,22.07
2022-11-20T01:21:44.813Z,22.07
2022-11-20T01:22:48.906Z,22.1
2022-11-20T01:23:52.975Z,22.05
2022-11-20T01:24:57.047Z,22.08
2022-11-20T01:26:01.121Z,22.03
2022-11-20T01:27:05.195Z,22.07
2022-11-20T01:28:09.306Z,22.06
2022-11-20T01:29:13.444Z,21.99
2022-11-20T01:30:17.537Z,21.99
2022-11-20T01:31:21.623Z,22.03
2022-11-20T01:32:25.741Z,22.01
2022-11-20T01:33:29.827Z,21.95
2022-11-20T01:34:33.926Z,21.98
2022-11-20T01:35:38.017Z,21.97
2022-11-20T01:36:42.096Z,21.94
2022-11-20T01:37:46.186Z,21.97
2022-11-20T01:38:50.286Z,21.97
2022-11-20T01:39:54.361Z,21.96
2022-11-20T01:40:58.437Z,21.94
2022-11-20T01:42:07.140Z,21.94
2022-11-20T01:43:13.878Z,21.88
2022-11-20T01:44:17.976Z,21.93
2022-11-20T01:45:22.054Z,21.88
2022-11-20T01:46:26.189Z,21.92
2022-11-20T01:47:30.254Z,21.91
2022-11-20T01:48:34.388Z,21.89
2022-11-20T01:49:38.482Z,21.88
2022-11-20T01:50:42.566Z,21.83
2022-11-20T01:51:46.654Z,21.86
2022-11-20T01:52:50.739Z,21.84
2022-11-20T01:53:54.993Z,21.83
2022-11-20T01:54:59.216Z,21.77
2022-11-20T01:56:03.371Z,21.81
2022-11-20T01:57:07.451Z,21.75
2022-11-20T01:58:11.585Z,21.79
2022-11-20T01:59:15.675Z,21.74
2022-11-20T02:00:20.330Z,21.74
2022-11-20T02:01:24.687Z,21.78
2022-11-20T02:02:29.153Z,21.73
2022-11-20T02:03:33.253Z,21.75
2022-11-20T02:04:37.306Z,21.74
2022-11-20T02:05:41.425Z,21.74
2022-11-20T02:06:45.553Z,21.73
2022-11-20T02:07:49.629Z,21.72
2022-11-20T02:08:53.731Z,21.66
2022-11-20T02:09:58.985Z,21.69
2022-11-20T02:11:03.237Z,21.65
2022-11-20T02:12:07.423Z,21.61
2022-11-20T02:13:11.492Z,21.63
2022-11-20T02:14:15.585Z,21.66
2022-11-20T02:15:19.665Z,21.66
2022-11-20T02:16:27.323Z,21.6
2022-11-20T02:17:31.380Z,21.64
2022-11-20T02:18:35.448Z,21.58
2022-11-20T02:19:39.529Z,21.62
2022-11-20T02:20:43.624Z,21.46
2022-11-20T02:21:47.720Z,21.6
2022-11-20T02:22:51.798Z,21.6
2022-11-20T02:23:55.926Z,21.6
2022-11-20T02:24:59.975Z,21.59
2022-11-20T02:26:04.054Z,21.58
2022-11-20T02:27:08.135Z,21.52
2022-11-20T02:28:12.193Z,21.57
2022-11-20T02:29:16.277Z,21.54
2022-11-20T02:30:20.991Z,21.58
2022-11-20T02:31:25.099Z,21.52
2022-11-20T02:32:29.177Z,21.56
2022-11-20T02:33:33.235Z,21.55
2022-11-20T02:34:37.322Z,21.53
2022-11-20T02:35:41.384Z,21.47
2022-11-20T02:36:45.452Z,21.52
2022-11-20T02:37:49.542Z,21.52
2022-11-20T02:38:53.615Z,21.51
2022-11-20T02:39:57.679Z,21.5
2022-11-20T02:41:01.738Z,21.5
2022-11-20T02:42:05.793Z,21.5
2022-11-20T02:43:09.883Z,21.5
2022-11-20T02:44:13.997Z,21.45
2022-11-20T02:45:18.045Z,21.49
2022-11-20T02:46:22.104Z,21.47
2022-11-20T02:47:26.158Z,21.46
2022-11-20T02:48:33.746Z,21.45
2022-11-20T02:49:38.006Z,21.44
2022-11-20T02:50:42.085Z,21.39
2022-11-20T02:51:46.448Z,21.43
2022-11-20T02:52:50.554Z,21.37
2022-11-20T02:53:54.765Z,21.4
2022-11-20T02:54:59.003Z,21.33
2022-11-20T02:56:03.072Z,21.38
2022-11-20T02:57:07.159Z,21.39
2022-11-20T02:58:11.239Z,21.34
2022-11-20T02:59:15.322Z,21.38
2022-11-20T03:00:19.391Z,21.38
2022-11-20T03:01:23.543Z,21.31
2022-11-20T03:02:27.851Z,21.35
2022-11-20T03:03:31.912Z,21.28
2022-11-20T03:04:35.998Z,21.32
2022-11-20T03:05:40.062Z,21.31
2022-11-20T03:06:44.146Z,21.31
2022-11-20T03:07:48.225Z,21.24
2022-11-20T03:08:52.274Z,21.3
2022-11-20T03:09:56.364Z,21.31
2022-11-20T03:11:00.410Z,21.28
2022-11-20T03:12:04.469Z,21.33
2022-11-20T03:13:08.521Z,21.35
2022-11-20T03:14:13.131Z,21.37
2022-11-20T03:15:17.230Z,21.37
2022-11-20T03:16:21.321Z,21.4
2022-11-20T03:17:25.422Z,21.49
2022-11-20T03:18:29.495Z,21.54
2022-11-20T03:19:33.537Z,21.58
2022-11-20T03:20:37.632Z,21.56
2022-11-20T03:21:41.696Z,21.57
2022-11-20T03:22:45.775Z,21.65
2022-11-20T03:23:49.855Z,21.67
2022-11-20T03:24:53.967Z,21.64
2022-11-20T03:25:58.057Z,21.69
2022-11-20T03:27:02.128Z,21.67
2022-11-20T03:28:06.212Z,21.73
2022-11-20T03:29:10.287Z,21.69
2022-11-20T03:30:14.368Z,21.7
2022-11-20T03:31:18.474Z,21.76
2022-11-20T03:32:22.574Z,21.74
2022-11-20T03:33:26.697Z,21.81
2022-11-20T03:34:30.769Z,21.82
2022-11-20T03:35:34.840Z,21.78
2022-11-20T03:36:38.914Z,21.84
2022-11-20T03:37:43.001Z,21.86
2022-11-20T03:38:47.088Z,21.88
2022-11-20T03:39:51.167Z,21.9
2022-11-20T03:40:55.231Z,21.9
2022-11-20T03:41:59.308Z,21.91
2022-11-20T03:43:03.411Z,21.94
2022-11-20T03:44:07.489Z,21.89
2022-11-20T03:45:11.549Z,21.9
2022-11-20T03:46:15.608Z,21.97
2022-11-20T03:47:19.702Z,21.95
2022-11-20T03:48:23.768Z,21.96
2022-11-20T03:49:27.856Z,22.04
2022-11-20T03:50:31.898Z,22.05
2022-11-20T03:51:35.962Z,22.06
2022-11-20T03:52:40.069Z,22.07
2022-11-20T03:53:44.140Z,22.07
2022-11-20T03:54:48.201Z,22.08
2022-11-20T03:55:52.271Z,22.11
2022-11-20T03:56:56.362Z,22.12
2022-11-20T03:58:00.467Z,22.09
2022-11-20T03:59:04.544Z,22.1
2022-11-20T04:00:08.629Z,22.09
2022-11-20T04:01:12.745Z,22.07
2022-11-20T04:02:17.194Z,22.07
2022-11-20T04:03:21.502Z,22.05
2022-11-20T04:04:25.731Z,22.05
2022-11-20T04:05:29.977Z,22.06
2022-11-20T04:06:34.066Z,22.05
2022-11-20T04:07:38.195Z,21.99
2022-11-20T04:08:42.509Z,22.06
2022-11-20T04:09:46.561Z,22.06
2022-11-20T04:10:50.655Z,22.09
2022-11-20T04:11:54.733Z,22.04
2022-11-20T04:12:58.788Z,22.07
2022-11-20T04:14:02.866Z,22.06
2022-11-20T04:15:06.934Z,22.07
2022-11-20T04:16:11.004Z,22.08
2022-11-20T04:17:15.087Z,22.11
2022-11-20T04:18:19.195Z,22.17
2022-11-20T04:19:23.556Z,22.18
2022-11-20T04:20:27.772Z,22.16
2022-11-20T04:21:31.861Z,22.22
2022-11-20T04:22:35.937Z,22.24
2022-11-20T04:23:40.017Z,22.2
2022-11-20T04:24:44.102Z,22.21
2022-11-20T04:25:48.196Z,22.23
2022-11-20T04:26:52.304Z,22.24
2022-11-20T04:27:56.404Z,22.29
2022-11-20T04:29:00.492Z,22.28
2022-11-20T04:30:04.580Z,22.31
2022-11-20T04:31:08.635Z,22.36
2022-11-20T04:32:12.722Z,22.34
2022-11-20T04:33:16.790Z,22.35
2022-11-20T04:34:20.972Z,22.43
2022-11-20T04:35:25.066Z,22.4
2022-11-20T04:36:29.147Z,22.42
2022-11-20T04:37:33.209Z,22.45
2022-11-20T04:38:37.290Z,22.45
2022-11-20T04:39:41.369Z,22.42
2022-11-20T04:40:45.477Z,22.48
2022-11-20T04:41:49.557Z,22.51
2022-11-20T04:42:53.612Z,22.51
2022-11-20T04:43:57.682Z,22.57
2022-11-20T04:45:01.752Z,22.53
2022-11-20T04:46:05.827Z,22.53
2022-11-20T04:47:09.918Z,22.61
2022-11-20T04:48:13.973Z,22.61
2022-11-20T04:49:18.093Z,22.64
2022-11-20T04:50:23.023Z,22.64
2022-11-20T04:51:27.192Z,22.64
2022-11-20T04:52:31.316Z,22.64
2022-11-20T04:53:35.387Z,22.63
2022-11-20T04:54:39.484Z,22.66
2022-11-20T04:55:43.559Z,22.68
2022-11-20T04:56:48.742Z,22.69
2022-11-20T04:57:53.939Z,22.63
2022-11-20T04:58:58.020Z,22.66
2022-11-20T05:00:02.084Z,22.63
2022-11-20T05:01:06.679Z,22.55
2022-11-20T05:02:11.144Z,22.57
2022-11-20T05:03:15.208Z,22.57
2022-11-20T05:04:19.321Z,22.48
2022-11-20T05:05:23.407Z,22.53
2022-11-20T05:06:27.467Z,22.52
2022-11-20T05:07:31.582Z,22.52
2022-11-20T05:08:35.932Z,22.46
2022-11-20T05:09:40.016Z,22.49
2022-11-20T05:10:44.088Z,22.55
2022-11-20T05:11:51.432Z,22.54
2022-11-20T05:12:55.736Z,22.6
2022-11-20T05:14:00.105Z,22.57
2022-11-20T05:15:04.438Z,22.65
2022-11-20T05:16:08.990Z,22.29
2022-11-20T05:17:13.782Z,22.69
2022-11-20T05:18:17.866Z,22.65
2022-11-20T05:19:22.150Z,22.71
2022-11-20T05:20:26.674Z,22.72
2022-11-20T05:21:30.797Z,22.7
2022-11-20T05:22:34.901Z,22.76
2022-11-20T05:23:39.036Z,22.73
2022-11-20T05:24:43.107Z,22.77
2022-11-20T05:25:47.196Z,22.79
2022-11-20T05:26:51.263Z,22.77
2022-11-20T05:27:55.320Z,22.84
2022-11-20T05:28:59.388Z,22.87
2022-11-20T05:30:03.461Z,22.82
2022-11-20T05:31:07.536Z,22.9
2022-11-20T05:32:11.628Z,22.92
2022-11-20T05:33:15.705Z,22.86
2022-11-20T05:34:19.789Z,22.93
2022-11-20T05:35:23.849Z,22.94
2022-11-20T05:36:27.930Z,22.95
2022-11-20T05:37:32.009Z,22.95
2022-11-20T05:38:36.068Z,22.93
2022-11-20T05:39:40.159Z,22.98
2022-11-20T05:40:44.224Z,23
2022-11-20T05:41:48.308Z,23.02
2022-11-20T05:42:52.391Z,22.98
2022-11-20T05:43:56.468Z,23.03
2022-11-20T05:45:00.563Z,23.06
2022-11-20T05:46:04.643Z,23.08
2022-11-20T05:47:08.721Z,23.05
2022-11-20T05:48:12.784Z,23.09
2022-11-20T05:49:16.853Z,23.03
2022-11-20T05:50:21.230Z,23.06
2022-11-20T05:51:25.312Z,23.12
2022-11-20T05:52:29.387Z,23.13
2022-11-20T05:53:33.529Z,23.11
2022-11-20T05:54:37.601Z,23.15
2022-11-20T05:55:41.711Z,23.1
2022-11-20T05:56:45.815Z,23.14
2022-11-20T05:57:49.897Z,23.13
2022-11-20T05:58:53.980Z,23.1
2022-11-20T05:59:58.057Z,23.06
2022-11-20T06:01:02.140Z,23.09
2022-11-20T06:02:06.237Z,23.1
2022-11-20T06:03:10.313Z,23.1
2022-11-20T06:04:14.383Z,23.08
2022-11-20T06:05:18.471Z,23.07
2022-11-20T06:06:22.545Z,23.07
2022-11-20T06:07:26.647Z,23.02
2022-11-20T06:08:30.844Z,23.05
2022-11-20T06:09:34.921Z,23.12
2022-11-20T06:10:39.038Z,23.09
2022-11-20T06:11:43.123Z,23.15
2022-11-20T06:12:47.192Z,23.15
2022-11-20T06:13:51.296Z,23.1
2022-11-20T06:14:55.436Z,23.14
2022-11-20T06:15:59.540Z,23.19
2022-11-20T06:17:03.683Z,23.19
2022-11-20T06:18:07.754Z,23.18
2022-11-20T06:19:11.849Z,23.19
2022-11-20T06:20:15.916Z,23.2
2022-11-20T06:21:20.018Z,23.22
2022-11-20T06:22:24.107Z,23.27
2022-11-20T06:23:28.169Z,23.26
2022-11-20T06:24:32.261Z,23.23
2022-11-20T06:25:36.356Z,23.22
2022-11-20T06:26:40.493Z,23.24
2022-11-20T06:27:44.583Z,23.29
2022-11-20T06:28:48.660Z,23.25
2022-11-20T06:29:52.782Z,23.31
2022-11-20T06:30:56.856Z,23.29
2022-11-20T06:32:00.940Z,23.31
2022-11-20T06:33:05.040Z,23.36
2022-11-20T06:34:09.118Z,23.37
2022-11-20T06:35:13.206Z,23.38
2022-11-20T06:36:17.374Z,23.39
2022-11-20T06:37:21.450Z,23.36
2022-11-20T06:38:25.553Z,23.39
2022-11-20T06:39:29.646Z,23.45
2022-11-20T06:40:33.711Z,23.44
2022-11-20T06:41:37.773Z,23.41
2022-11-20T06:42:41.840Z,23.46
2022-11-20T06:43:45.917Z,23.45
2022-11-20T06:44:50.019Z,23.45
2022-11-20T06:45:54.086Z,23.39
2022-11-20T06:46:58.226Z,23.41
2022-11-20T06:48:02.324Z,23.4
2022-11-20T06:49:06.400Z,23.35
2022-11-20T06:50:10.503Z,23.34
2022-11-20T06:51:14.601Z,23.34
2022-11-20T06:52:18.690Z,23.34
2022-11-20T06:53:22.804Z,23.33
2022-11-20T06:54:26.885Z,23.31
2022-11-20T06:55:30.951Z,23.37
2022-11-20T06:56:35.003Z,23.38
2022-11-20T06:57:39.069Z,23.39
2022-11-20T06:58:43.146Z,23.41
2022-11-20T06:59:47.241Z,23.41
2022-11-20T07:00:51.334Z,23.4
2022-11-20T07:01:55.482Z,23.38
2022-11-20T07:02:59.562Z,23.42
2022-11-20T07:04:03.635Z,23.43
2022-11-20T07:05:07.753Z,23.44
2022-11-20T07:06:11.844Z,23.43
2022-11-20T07:07:15.988Z,23.39
2022-11-20T07:08:20.354Z,23.41
2022-11-20T07:09:24.752Z,23.41
2022-11-20T07:10:29.950Z,23.39
2022-11-20T07:11:34.079Z,23.31
2022-11-20T07:12:38.146Z,23.34
2022-11-20T07:13:42.288Z,23.32
2022-11-20T07:14:46.397Z,23.3
2022-11-20T07:15:50.488Z,23.23
2022-11-20T07:16:54.559Z,23.21
2022-11-20T07:17:58.636Z,23.21
2022-11-20T07:19:02.725Z,23.18
2022-11-20T07:20:06.817Z,23.2
2022-11-20T07:21:10.898Z,23.16
2022-11-20T07:22:14.969Z,23.15
2022-11-20T07:23:19.039Z,23.07
2022-11-20T07:24:23.113Z,23.1
2022-11-20T07:25:27.178Z,23.09
2022-11-20T07:26:31.237Z,23.08
2022-11-20T07:27:35.332Z,23
2022-11-20T07:28:39.455Z,22.97
2022-11-20T07:29:43.560Z,23
2022-11-20T07:30:47.638Z,22.93
2022-11-20T07:31:51.723Z,22.91
2022-11-20T07:32:55.811Z,22.93
2022-11-20T07:33:59.887Z,22.92
2022-11-20T07:35:03.986Z,22.9
2022-11-20T07:36:08.065Z,22.84
2022-11-20T07:37:12.155Z,22.86
2022-11-20T07:38:16.223Z,22.84
2022-11-20T07:39:20.513Z,22.77
2022-11-20T07:40:25.437Z,22.8
2022-11-20T07:41:29.695Z,22.78
2022-11-20T07:42:33.799Z,22.73
2022-11-20T07:43:41.140Z,22.75
2022-11-20T07:44:45.500Z,22.74
2022-11-20T07:45:49.589Z,22.68
2022-11-20T07:46:53.724Z,22.72
2022-11-20T07:47:57.823Z,22.7
2022-11-20T07:49:01.894Z,22.64
2022-11-20T07:50:05.972Z,22.6
2022-11-20T07:51:10.188Z,22.61
2022-11-20T07:52:14.289Z,22.65
2022-11-20T07:53:18.358Z,22.64
2022-11-20T07:54:22.420Z,22.57
2022-11-20T07:55:26.508Z,22.56
2022-11-20T07:56:30.596Z,22.61
2022-11-20T07:57:34.669Z,22.58
2022-11-20T07:58:38.754Z,22.59
2022-11-20T07:59:42.819Z,22.52
2022-11-20T08:00:46.922Z,22.48
2022-11-20T08:01:51.200Z,22.52
2022-11-20T08:02:55.297Z,22.49
2022-11-20T08:03:59.382Z,22.48
2022-11-20T08:05:03.474Z,22.46
2022-11-20T08:06:07.580Z,22.45
2022-11-20T08:07:11.701Z,22.38
2022-11-20T08:08:15.949Z,22.41
2022-11-20T08:09:20.328Z,22.39
2022-11-20T08:10:25.348Z,22.39
2022-11-20T08:11:29.505Z,22.38
2022-11-20T08:12:33.597Z,22.36
2022-11-20T08:13:37.688Z,22.34
2022-11-20T08:14:41.755Z,22.33
2022-11-20T08:15:45.836Z,22.27
2022-11-20T08:16:49.911Z,22.25
2022-11-20T08:18:15.716Z,22.28
2022-11-20T08:19:35.710Z,22.09
2022-11-20T08:20:39.794Z,22.19
2022-11-20T08:21:43.866Z,22.18
2022-11-20T08:22:47.953Z,22.17
2022-11-20T08:23:52.035Z,22.15
2022-11-20T08:24:56.138Z,22.13
2022-11-20T08:26:00.223Z,22.17
2022-11-20T08:27:04.298Z,22.15
2022-11-20T08:28:18.651Z,22.14
2022-11-20T08:29:25.577Z,22.14
2022-11-20T08:30:29.662Z,22.13
2022-11-20T08:31:33.770Z,22.07
2022-11-20T08:32:37.832Z,22.06
2022-11-20T08:33:41.928Z,22.09
2022-11-20T08:34:45.986Z,22.08
2022-11-20T08:35:50.092Z,22.03
2022-11-20T08:36:54.166Z,22.05
2022-11-20T08:37:58.237Z,22.04
2022-11-20T08:39:02.309Z,22.05
2022-11-20T08:40:06.381Z,22
2022-11-20T08:41:10.491Z,22.01
2022-11-20T08:42:14.562Z,22.05
2022-11-20T08:43:18.650Z,22.04
2022-11-20T08:44:22.785Z,22.02
2022-11-20T08:45:30.988Z,21.96
2022-11-20T08:46:38.715Z,22
2022-11-20T08:47:42.817Z,21.95
2022-11-20T08:48:46.902Z,21.98
2022-11-20T08:49:50.984Z,21.97
2022-11-20T08:50:55.113Z,21.96
2022-11-20T08:51:59.208Z,21.9
2022-11-20T08:53:03.292Z,21.89
2022-11-20T08:54:07.362Z,21.94
2022-11-20T08:55:11.453Z,21.87
2022-11-20T08:56:15.520Z,21.91
2022-11-20T08:57:19.588Z,21.9
2022-11-20T08:58:23.656Z,21.89
2022-11-20T08:59:50.637Z,21.84
2022-11-20T09:01:09.616Z,21.86
2022-11-20T09:02:13.873Z,21.8
2022-11-20T09:03:17.941Z,21.8
2022-11-20T09:04:22.026Z,21.84
2022-11-20T09:05:26.100Z,21.84
2022-11-20T09:06:30.209Z,21.77
2022-11-20T09:07:34.445Z,21.81
2022-11-20T09:08:38.636Z,21.8
2022-11-20T09:09:42.688Z,21.75
2022-11-20T09:10:48.654Z,21.75
2022-11-20T09:11:52.739Z,21.78
2022-11-20T09:12:57.014Z,21.77
2022-11-20T09:14:01.087Z,21.76
2022-11-20T09:15:05.168Z,21.74
2022-11-20T09:16:09.235Z,21.74
2022-11-20T09:17:13.313Z,21.72
2022-11-20T09:18:17.436Z,21.67
2022-11-20T09:19:34.939Z,21.71
2022-11-20T09:20:45.343Z,21.7
2022-11-20T09:21:49.539Z,21.69
2022-11-20T09:22:57.854Z,21.68
2022-11-20T09:24:01.982Z,21.62
2022-11-20T09:25:06.051Z,21.67
2022-11-20T09:26:10.140Z,21.61
2022-11-20T09:27:14.217Z,21.65
2022-11-20T09:28:18.298Z,21.65
2022-11-20T09:29:22.722Z,21.63
2022-11-20T09:30:27.587Z,21.63
2022-11-20T09:31:31.747Z,21.57
2022-11-20T09:32:35.836Z,21.56
2022-11-20T09:33:39.908Z,21.6
2022-11-20T09:34:44.001Z,21.59
2022-11-20T09:35:48.072Z,21.53
2022-11-20T09:36:52.132Z,21.58
2022-11-20T09:37:56.201Z,21.51
2022-11-20T09:39:00.272Z,21.55
2022-11-20T09:40:04.359Z,21.55
2022-11-20T09:41:08.453Z,21.54
2022-11-20T09:42:12.518Z,21.53
2022-11-20T09:43:16.597Z,21.53
2022-11-20T09:44:20.654Z,21.51
2022-11-20T09:45:24.770Z,21.51
2022-11-20T09:46:28.858Z,21.5
2022-11-20T09:47:32.928Z,21.5
2022-11-20T09:48:36.979Z,21.49
2022-11-20T09:49:41.076Z,21.44
2022-11-20T09:50:45.146Z,21.49
2022-11-20T09:51:49.221Z,21.42
2022-11-20T09:52:53.280Z,21.46
2022-11-20T09:53:57.354Z,21.41
2022-11-20T09:55:01.440Z,21.47
2022-11-20T09:56:05.626Z,21.48
2022-11-20T09:57:09.696Z,21.46
2022-11-20T09:58:13.776Z,21.4
2022-11-20T09:59:17.871Z,21.46
2022-11-20T10:00:23.027Z,21.46
2022-11-20T10:01:27.207Z,21.41
2022-11-20T10:02:31.512Z,21.4
2022-11-20T10:03:35.583Z,21.39
2022-11-20T10:04:40.723Z,21.43
2022-11-20T10:05:44.942Z,21.38
2022-11-20T10:06:55.511Z,21.41
2022-11-20T10:08:35.529Z,21.35
2022-11-20T10:09:39.657Z,21.39
2022-11-20T10:10:44.387Z,21.38
2022-11-20T10:11:56.222Z,21.39
2022-11-20T10:13:00.279Z,21.37
2022-11-20T10:14:04.381Z,21.37
2022-11-20T10:15:08.452Z,21.37
2022-11-20T10:16:12.595Z,21.35
2022-11-20T10:17:16.682Z,21.29
2022-11-20T10:18:20.780Z,21.33
2022-11-20T10:19:24.903Z,21.3
2022-11-20T10:20:29.068Z,21.23
2022-11-20T10:21:33.170Z,21.27
2022-11-20T10:22:37.261Z,21.27
2022-11-20T10:23:41.425Z,21.32
